x

West Moresby (46208) Wave Buoy

8:00pm - Mon 29th Jun 2015 All times are PDT. -7 hours from GMT.

  • Sig Wave height 4.3ft
  • Peak Period 4s
  • Wind
    20mph, 22mph gusts
  • Sea Temp 58°f
  • Air Temp 58°f
  • Sea Pressure 1021.8mb
  • West Moresby
  • West Moresby

More Historic Weather Station data

Upgrade to MSW Pro to gain access to the past 30 days of data for over 8000 Wavebouys and Weather Stations around the globe.

Join Pro

Comparision Forecast

View Surf forecast
   
Mon 06/29 8:00pm 4.5ft 4s 20 22 mph 1021.8mb 58f 58f
7:00pm 4ft 5s 18 22 mph 1021.8mb 59f 58f
6:00pm 4ft 16s 20 22 mph 1021.4mb 59f 58f
5:00pm 4.5ft 4s 18 22 mph 1021.5mb 59f 58f
4:00pm 4ft 16s 18 22 mph 1021.2mb 59f 58f
3:00pm 3.5ft 8s 18 20 mph 1021mb 59f 58f
2:00pm 3.5ft 17s 16 20 mph 1020.5mb 58f 58f
1:00pm 3.5ft 7s 18 20 mph 1019.9mb 58f 57f
12:00pm 3.5ft 16s 16 18 mph 1019.4mb 58f 57f
11:00am 3ft 16s 13 18 mph 1019mb 58f 58f
10:00am 3ft 17s 16 18 mph 1018.7mb 58f 57f
9:00am 3ft 17s 11 13 mph 1018.3mb 58f 56f
8:00am 2.5ft 16s 9 11 mph 1018.1mb 58f 56f
7:00am 2.5ft 16s 7 9 mph 1017.9mb 58f 56f
6:00am 2.5ft 8s 7 9 mph 1017.5mb 58f 56f
5:00am 2.5ft 16s 9 11 mph 1016.9mb 58f 57f
4:00am 3ft 8s 9
mph
1016.7mb 58f 58f
3:00am 3ft 8s 13 16 mph 1016.7mb 58f 58f
2:00am 3ft 8s 7 9 mph 1016.5mb 58f 58f
1:00am 3ft 8s 9 11 mph 1016.3mb 59f 58f
12:00am 3ft 8s 4 7 mph 1016.1mb 59f 58f
Sun 06/28 11:00pm 2.5ft 8s 4 7 mph 1016.3mb 59f 58f
10:00pm 2.5ft 8s 9
mph
1016.4mb 59f 58f
9:00pm 2.5ft 8s 11 13 mph 1016.6mb 59f 57f
8:00pm 2.5ft 8s 9
mph
1016.5mb 59f 57f
7:00pm 2.5ft 8s 7 9 mph 1016.9mb 59f 57f
6:00pm 2.5ft 8s 7 9 mph 1017.1mb 59f 57f
5:00pm 2.5ft 14s 9
mph
1017.5mb 59f 57f
4:00pm 3ft 8s 7
mph
1018mb 59f 57f
3:00pm 3ft 8s 7 9 mph 1018.4mb 59f 57f
2:00pm 3.5ft 9s 9 11 mph 1018.9mb 59f 57f
1:00pm 3.5ft 9s 7 9 mph 1018.7mb 58f 57f
12:00pm 3.5ft 8s 7
mph
1018.7mb 58f 57f
11:00am 3.5ft 9s 9 11 mph 1018.9mb 58f 57f
10:00am 4ft 9s 7 9 mph 1018.7mb 58f 56f
9:00am 4ft 9s 4 9 mph 1018.7mb 58f 56f
8:00am 3.5ft 8s 4
mph
1018.5mb 58f 57f
7:00am 4ft 8s 2 4 mph 1019mb 58f 57f
6:00am 4ft 8s 2
mph
1019mb 58f 57f
5:00am 3.5ft 8s  -  2 mph 1019mb 57f 56f
4:00am 3.5ft 8s 2 4 mph 1019mb 58f 57f
3:00am 3.5ft 9s 2
mph
1019.2mb 58f 56f
2:00am 3.5ft 8s  -  2 mph 1019.2mb 58f 56f
1:00am 4.5ft 8s 2
mph
1019.3mb 58f 56f
12:00am 4.5ft 9s 4 7 mph 1019.9mb 58f 56f
Sat 06/27 11:00pm 4.5ft 10s 2 4 mph 1019.6mb 58f 57f
10:00pm 5ft 9s 7 9 mph 1019.5mb 58f 57f
9:00pm 5ft 10s 9 11 mph 1019.7mb 58f 57f
8:00pm 5ft 10s 13 16 mph 1019.8mb 58f 57f
7:00pm 5ft 10s 13 16 mph 1020mb 58f 57f
6:00pm 5ft 10s 13 18 mph 1020.3mb 58f 58f
5:00pm 5ft 10s 13 16 mph 1020.4mb 58f 58f
4:00pm 4.5ft 10s 16 18 mph 1020.3mb 58f 58f
3:00pm 4.5ft 10s 18 20 mph 1020.2mb 58f 58f
2:00pm 4.5ft 9s 13 18 mph 1020.3mb 58f 58f
1:00pm 4.5ft 8s 16 18 mph 1020.1mb 58f 58f
12:00pm 4.5ft 8s 13 18 mph 1019.9mb 58f 58f
11:00am 4.5ft 8s 13 18 mph 1019.7mb 58f 58f
10:00am 4ft 8s 13 16 mph 1019.9mb 58f 58f
9:00am 3.5ft 9s 13
mph
1020.1mb 58f 58f
8:00am 3.5ft 8s 11
mph
1020.1mb 58f 58f
7:00am 3.5ft 9s 9 11 mph 1020.3mb 58f 58f
6:00am 3.5ft 8s 9
mph
1020.5mb 58f 58f
5:00am 3.5ft 8s 4 7 mph 1020.5mb 58f 58f
4:00am 3.5ft 9s 7
mph
1020.7mb 58f 58f
3:00am 3.5ft 9s 7
mph
1020.7mb 59f 58f
2:00am 3.5ft 7s 2 4 mph 1020.5mb 59f 58f
1:00am 3.5ft 8s 4
mph
1020.8mb 59f 58f
12:00am 4ft 8s 4
mph
1021.2mb 59f 58f
Fri 06/26 11:00pm 4.5ft 8s 4
mph
1021.5mb 59f 58f
10:00pm 4.5ft 8s 2
mph
1021.4mb 59f 57f
9:00pm 4ft 8s 2 4 mph 1021.7mb 59f 57f
8:00pm 4ft 8s 2
mph
1021.7mb 59f 58f
7:00pm 4ft 8s 4
mph
1022.3mb 59f 58f
6:00pm 4.5ft 8s 2
mph
1022.7mb 59f 58f
5:00pm 4ft 8s 4
mph
1023.2mb 59f 58f
4:00pm 4.5ft 7s 4
mph
1023.6mb 59f 58f
3:00pm 4.5ft 8s 7 9 mph 1023.8mb 58f 58f
2:00pm 4.5ft 8s 9
mph
1024.1mb 58f 58f
1:00pm 4.5ft 9s 7 9 mph 1023.7mb 58f 57f
12:00pm 5ft 10s 7 9 mph 1023.8mb 58f 57f
11:00am 5ft 8s 4 7 mph 1023.6mb 58f 57f
10:00am 5.5ft 9s 2 4 mph 1023.5mb 57f 57f
9:00am 5ft 8s 4
mph
1023.6mb 57f 57f
8:00am 5ft 8s 4
mph
1023.4mb 57f 57f
7:00am 5ft 8s 4
mph
1023.3mb 57f 56f
6:00am 5.5ft 9s 4 7 mph 1022.9mb 57f 56f
5:00am 5.5ft 8s 7 9 mph 1022.8mb 57f 56f